createdAt,value
2022-11-27T00:04:54.218Z,7.97
2022-11-27T00:07:22.072Z,7.81
2022-11-27T00:09:54.563Z,8.01
2022-11-27T00:12:23.541Z,7.99
2022-11-27T00:14:55.369Z,8.07
2022-11-27T00:17:24.262Z,8.92
2022-11-27T00:19:52.746Z,8.40
2022-11-27T00:22:24.405Z,8.21
2022-11-27T00:24:52.078Z,8.25
2022-11-27T00:27:19.210Z,8.18
2022-11-27T00:29:49.438Z,7.37
2022-11-27T00:32:19.502Z,7.06
2022-11-27T00:34:51.505Z,6.95
2022-11-27T00:37:19.462Z,7.03
2022-11-27T00:39:48.313Z,7.59
2022-11-27T00:42:18.099Z,8.26
2022-11-27T00:44:45.180Z,8.67
2022-11-27T00:47:12.428Z,8.42
2022-11-27T00:49:49.669Z,8.53
2022-11-27T00:52:22.043Z,8.59
2022-11-27T00:54:56.603Z,8.22
2022-11-27T00:57:25.130Z,8.13
2022-11-27T00:59:55.694Z,7.70
2022-11-27T01:02:24.871Z,7.67
2022-11-27T01:04:51.964Z,7.85
2022-11-27T01:07:21.415Z,7.89
2022-11-27T01:09:51.121Z,7.97
2022-11-27T01:15:01.971Z,8.13
2022-11-27T01:17:29.388Z,8.73
2022-11-27T01:20:00.004Z,7.86
2022-11-27T01:22:27.255Z,6.80
2022-11-27T01:24:54.946Z,6.93
2022-11-27T01:27:40.302Z,7.31
2022-11-27T01:30:13.247Z,6.50
2022-11-27T01:32:44.547Z,6.41
2022-11-27T01:35:21.183Z,6.64
2022-11-27T01:37:48.040Z,7.01
2022-11-27T01:40:17.622Z,7.61
2022-11-27T01:43:02.336Z,7.95
2022-11-27T01:45:33.273Z,8.47
2022-11-27T01:48:05.724Z,8.76
2022-11-27T01:50:35.852Z,8.88
2022-11-27T01:53:08.315Z,8.79
2022-11-27T01:55:35.362Z,8.59
2022-11-27T01:58:02.733Z,8.19
2022-11-27T02:00:31.521Z,7.86
2022-11-27T02:03:01.719Z,7.49
2022-11-27T02:05:28.883Z,7.28
2022-11-27T02:07:56.701Z,7.59
2022-11-27T02:10:25.237Z,7.72
2022-11-27T02:12:53.861Z,7.85
2022-11-27T02:15:26.615Z,8.15
2022-11-27T02:17:58.712Z,8.35
2022-11-27T02:20:38.820Z,8.32
2022-11-27T02:23:07.059Z,8.70
2022-11-27T02:25:33.806Z,9.30
2022-11-27T02:28:04.026Z,8.90
2022-11-27T02:30:35.595Z,8.78
2022-11-27T02:33:06.277Z,8.71
2022-11-27T02:35:34.805Z,8.80
2022-11-27T02:38:03.326Z,9.42
2022-11-27T02:43:20.911Z,9.88
2022-11-27T02:45:47.596Z,10.22
2022-11-27T02:48:14.542Z,10.36
2022-11-27T02:50:41.734Z,9.89
2022-11-27T02:53:20.444Z,9.84
2022-11-27T02:55:47.891Z,9.97
2022-11-27T02:58:21.328Z,10.17
2022-11-27T03:00:50.639Z,9.99
2022-11-27T03:03:20.646Z,9.74
2022-11-27T03:05:47.861Z,9.50
2022-11-27T03:08:26.019Z,8.56
2022-11-27T03:10:56.351Z,8.91
2022-11-27T03:13:49.604Z,9.13
2022-11-27T03:16:18.316Z,8.64
2022-11-27T03:18:45.683Z,7.58
2022-11-27T03:21:15.986Z,7.23
2022-11-27T03:23:43.066Z,6.89
2022-11-27T03:26:13.996Z,6.91
2022-11-27T03:28:40.990Z,7.35
2022-11-27T03:31:09.975Z,6.30
2022-11-27T03:33:37.877Z,6.47
2022-11-27T03:36:08.804Z,6.53
2022-11-27T03:38:40.777Z,6.29
2022-11-27T03:41:09.913Z,6.80
2022-11-27T03:43:39.538Z,6.74
2022-11-27T03:49:05.588Z,7.02
2022-11-27T03:51:33.299Z,7.00
2022-11-27T03:54:02.200Z,7.16
2022-11-27T03:56:34.029Z,7.34
2022-11-27T03:59:01.964Z,7.39
2022-11-27T04:01:49.429Z,6.62
2022-11-27T04:04:22.062Z,7.42
2022-11-27T04:06:55.456Z,7.60
2022-11-27T04:09:22.713Z,7.56
2022-11-27T04:11:52.207Z,7.79
2022-11-27T04:14:40.147Z,7.68
2022-11-27T04:17:12.619Z,7.57
2022-11-27T04:19:39.766Z,7.20
2022-11-27T04:22:07.746Z,7.04
2022-11-27T04:24:34.936Z,7.03
2022-11-27T04:27:02.085Z,7.84
2022-11-27T04:29:31.969Z,8.39
2022-11-27T04:31:59.770Z,8.56
2022-11-27T04:34:28.782Z,8.25
2022-11-27T04:36:55.872Z,8.58
2022-11-27T04:39:25.169Z,9.19
2022-11-27T04:41:53.058Z,9.01
2022-11-27T04:44:23.659Z,9.36
2022-11-27T04:46:56.683Z,9.81
2022-11-27T04:49:24.071Z,10.21
2022-11-27T04:51:54.120Z,10.25
2022-11-27T04:54:21.649Z,10.62
2022-11-27T04:56:51.811Z,10.39
2022-11-27T04:59:21.987Z,10.40
2022-11-27T05:01:51.596Z,10.74
2022-11-27T05:04:22.337Z,10.78
2022-11-27T05:06:49.373Z,10.80
2022-11-27T05:09:16.993Z,11.03
2022-11-27T05:11:45.412Z,11.10
2022-11-27T05:14:14.034Z,11.10
2022-11-27T05:16:41.199Z,11.26
2022-11-27T05:19:12.831Z,11.29
2022-11-27T05:21:42.476Z,11.31
2022-11-27T05:24:10.531Z,11.31
2022-11-27T05:26:37.700Z,11.49
2022-11-27T05:29:07.611Z,11.52
2022-11-27T05:31:34.775Z,11.38
2022-11-27T05:34:01.733Z,11.50
2022-11-27T05:36:34.878Z,11.22
2022-11-27T05:39:02.023Z,11.42
2022-11-27T05:41:29.591Z,11.49
2022-11-27T05:44:00.289Z,11.43
2022-11-27T05:46:38.673Z,11.00
2022-11-27T05:49:10.593Z,10.90
2022-11-27T05:51:43.280Z,10.94
2022-11-27T05:54:15.055Z,11.14
2022-11-27T05:56:42.652Z,10.99
2022-11-27T05:59:11.237Z,10.94
2022-11-27T06:01:39.839Z,10.80
2022-11-27T06:04:08.389Z,9.99
2022-11-27T06:06:35.779Z,10.41
2022-11-27T06:09:12.177Z,10.74
2022-11-27T06:11:40.336Z,10.77
2022-11-27T06:14:07.750Z,10.97
2022-11-27T06:16:38.228Z,10.59
2022-11-27T06:19:05.339Z,10.84
2022-11-27T06:21:33.236Z,10.95
2022-11-27T06:24:00.407Z,11.00
2022-11-27T06:26:27.745Z,10.95
2022-11-27T06:28:54.929Z,10.89
2022-11-27T06:31:22.059Z,10.01
2022-11-27T06:33:49.370Z,10.28
2022-11-27T06:36:24.538Z,10.29
2022-11-27T06:38:56.102Z,9.80
2022-11-27T06:41:23.218Z,10.01
2022-11-27T06:43:53.016Z,10.23
2022-11-27T06:46:22.363Z,9.89
2022-11-27T06:48:50.731Z,9.06
2022-11-27T06:51:19.431Z,9.33
2022-11-27T06:53:50.518Z,9.44
2022-11-27T06:56:20.777Z,9.84
2022-11-27T06:59:00.804Z,10.01
2022-11-27T07:01:29.603Z,10.08
2022-11-27T07:03:58.183Z,10.32
2022-11-27T07:06:24.840Z,10.61
2022-11-27T07:08:57.447Z,10.66
2022-11-27T07:11:24.940Z,10.81
2022-11-27T07:13:52.562Z,10.98
2022-11-27T07:16:20.316Z,10.89
2022-11-27T07:18:47.030Z,10.84
2022-11-27T07:21:13.706Z,10.90
2022-11-27T07:23:40.689Z,10.97
2022-11-27T07:26:07.231Z,10.96
2022-11-27T07:28:33.788Z,11.02
2022-11-27T07:31:04.291Z,10.79
2022-11-27T07:33:31.647Z,11.06
2022-11-27T07:35:58.203Z,10.87
2022-11-27T07:38:25.593Z,11.18
2022-11-27T07:40:56.375Z,11.18
2022-11-27T07:43:27.003Z,11.28
2022-11-27T07:45:55.444Z,10.96
2022-11-27T07:51:34.843Z,9.99
2022-11-27T07:54:01.525Z,10.19
2022-11-27T07:56:28.236Z,10.01
2022-11-27T07:58:54.965Z,9.90
2022-11-27T08:01:22.320Z,10.05
2022-11-27T08:03:49.632Z,9.86
2022-11-27T08:06:19.573Z,9.90
2022-11-27T08:11:43.594Z,8.93
2022-11-27T08:14:12.087Z,8.72
2022-11-27T08:16:39.159Z,8.68
2022-11-27T08:19:06.786Z,8.67
2022-11-27T08:21:35.458Z,8.62
2022-11-27T08:24:02.727Z,9.53
2022-11-27T08:26:30.141Z,10.14
2022-11-27T08:28:57.192Z,10.61
2022-11-27T08:31:25.919Z,10.04
2022-11-27T08:33:53.550Z,10.05
2022-11-27T08:36:20.870Z,10.61
2022-11-27T08:38:47.850Z,10.82
2022-11-27T08:41:18.068Z,11.10
2022-11-27T08:43:46.049Z,11.44
2022-11-27T08:49:11.889Z,10.70
2022-11-27T08:51:39.029Z,10.79
2022-11-27T13:27:59.150Z,12.44
2022-11-27T13:30:28.760Z,12.55
2022-11-27T13:32:56.391Z,12.90
2022-11-27T13:35:23.800Z,12.76
2022-11-27T13:37:52.676Z,12.74
2022-11-27T13:40:22.736Z,12.77
2022-11-27T13:42:58.406Z,12.51
2022-11-27T13:45:29.593Z,12.91
2022-11-27T13:47:57.523Z,12.45
2022-11-27T13:50:30.854Z,12.57
2022-11-27T13:53:03.650Z,11.95
2022-11-27T13:55:34.277Z,12.43
2022-11-27T13:58:05.620Z,12.76
2022-11-27T14:00:41.068Z,12.79
2022-11-27T14:03:16.652Z,12.36
2022-11-27T14:06:01.478Z,12.79
2022-11-27T14:08:31.807Z,12.96
2022-11-27T14:11:15.097Z,12.72
2022-11-27T14:13:49.707Z,13.12
2022-11-27T14:16:20.463Z,13.24
2022-11-27T14:19:11.212Z,13.45
2022-11-27T14:21:46.791Z,13.56
2022-11-27T14:24:14.254Z,13.49
2022-11-27T14:30:04.728Z,13.50
2022-11-27T14:32:35.978Z,13.21
2022-11-27T17:52:42.580Z,11.54
2022-11-27T17:58:54.179Z,11.68
2022-11-27T18:04:24.575Z,11.54
2022-11-27T18:06:51.625Z,11.75
2022-11-27T18:09:18.694Z,11.47
2022-11-27T18:18:06.744Z,11.51
2022-11-27T18:23:30.644Z,11.80
2022-11-27T18:26:07.293Z,12.01
2022-11-27T18:28:37.922Z,12.25
2022-11-27T18:40:07.852Z,12.66
2022-11-27T18:42:34.414Z,12.55
2022-11-27T18:51:19.242Z,12.77
2022-11-27T18:56:54.560Z,11.75
2022-11-27T18:59:21.190Z,10.54
2022-11-27T19:45:35.268Z,12.81
2022-11-27T19:48:03.514Z,12.81
2022-11-27T20:03:23.358Z,12.53
2022-11-27T20:06:01.154Z,12.06
2022-11-27T20:08:32.582Z,12.23
2022-11-27T20:20:55.962Z,12.61
2022-11-27T20:23:21.241Z,12.23
2022-11-27T20:28:47.867Z,10.99
2022-11-27T20:31:14.671Z,11.54
2022-11-27T20:33:50.050Z,11.71
2022-11-27T20:36:24.647Z,11.77
2022-11-27T20:38:52.313Z,12.01
2022-11-27T20:41:19.361Z,12.14
2022-11-27T20:43:47.946Z,12.34
2022-11-27T20:46:20.084Z,12.35
2022-11-27T20:48:51.437Z,12.49
2022-11-27T20:51:20.511Z,12.66
2022-11-27T20:53:53.409Z,12.69
2022-11-27T20:56:28.747Z,12.56
2022-11-27T20:59:00.561Z,12.74
2022-11-27T21:01:40.533Z,12.49
2022-11-27T21:29:34.249Z,12.69
2022-11-27T21:43:57.380Z,12.74
2022-11-27T21:46:31.523Z,12.49
2022-11-27T21:49:14.094Z,12.72
2022-11-27T21:51:54.409Z,12.81
2022-11-27T21:54:25.069Z,12.65
2022-11-27T21:56:56.893Z,12.75
2022-11-27T22:05:38.086Z,12.72
2022-11-27T22:11:21.626Z,12.65
2022-11-27T22:23:07.080Z,12.63
2022-11-27T22:32:29.486Z,12.53
2022-11-27T22:37:39.957Z,12.31
2022-11-27T22:46:32.692Z,12.60
2022-11-27T22:49:04.510Z,12.73
2022-11-27T22:58:00.882Z,12.75
2022-11-27T23:01:42.723Z,12.83
2022-11-27T23:06:30.970Z,12.69
2022-11-27T23:09:15.944Z,12.80
2022-11-27T23:15:07.032Z,12.65
2022-11-27T23:17:36.194Z,12.29
2022-11-27T23:20:04.822Z,12.06
2022-11-27T23:22:51.381Z,12.24
2022-11-27T23:40:34.008Z,11.14
2022-11-27T23:46:16.912Z,10.09
2022-11-27T23:49:01.710Z,9.96
2022-11-27T23:51:31.384Z,11.13
2022-11-27T23:54:04.143Z,11.68
2022-11-27T23:56:43.203Z,11.53
2022-11-27T23:59:16.071Z,11.83
